Terminal Aerodrome Forecast
Issued by NWS

Home | Current Version | Previous Version | Text Only | Print | Product List | Glossary On
Versions: 1 2 3 4 5 6 7 8 9 10 11 12 13 14 15 16 17 18 19 20
236
FTUS41 KBTV 081121
TAFMSS
TAF
KMSS 081121Z 0812/0912 07014G19KT P6SM BKN070
     FM082300 07011G16KT P6SM VCSH OVC040
     FM090300 07010KT P6SM -SN OVC030=

USA.gov is the U.S. government's official web portal to all federal, state and local government web resources and services.